createdAt,value
2022-08-21T00:01:02.695Z,19.86
2022-08-21T00:03:35.486Z,19.84
2022-08-21T00:06:03.542Z,19.80
2022-08-21T00:08:31.748Z,19.76
2022-08-21T00:11:01.616Z,19.72
2022-08-21T00:13:29.823Z,19.68
2022-08-21T00:15:57.903Z,19.64
2022-08-21T00:18:26.339Z,19.59
2022-08-21T00:20:54.424Z,19.55
2022-08-21T00:23:22.510Z,19.51
2022-08-21T00:25:52.387Z,19.48
2022-08-21T00:28:21.914Z,19.43
2022-08-21T00:30:50.131Z,19.40
2022-08-21T00:33:18.189Z,19.36
2022-08-21T00:35:46.172Z,19.32
2022-08-21T00:38:14.476Z,19.30
2022-08-21T00:40:43.874Z,19.27
2022-08-21T00:43:13.202Z,19.25
2022-08-21T00:45:42.677Z,19.23
2022-08-21T00:48:10.758Z,19.22
2022-08-21T00:50:43.761Z,19.21
2022-08-21T00:53:13.057Z,19.19
2022-08-21T00:55:41.364Z,19.18
2022-08-21T00:58:10.295Z,19.16
2022-08-21T01:00:40.595Z,19.13
2022-08-21T01:03:11.734Z,19.11
2022-08-21T01:05:40.175Z,19.07
2022-08-21T01:08:08.622Z,19.04
2022-08-21T01:10:37.066Z,19.01
2022-08-21T01:13:10.536Z,18.98
2022-08-21T01:15:40.901Z,18.96
2022-08-21T01:18:11.980Z,18.93
2022-08-21T01:20:43.301Z,18.90
2022-08-21T01:23:15.703Z,18.87
2022-08-21T01:25:45.351Z,18.84
2022-08-21T01:28:15.467Z,18.82
2022-08-21T01:30:44.869Z,18.78
2022-08-21T01:33:13.189Z,18.76
2022-08-21T01:35:41.166Z,18.72
2022-08-21T01:38:09.835Z,18.69
2022-08-21T01:40:39.477Z,18.64
2022-08-21T01:43:08.043Z,18.61
2022-08-21T01:45:36.137Z,18.58
2022-08-21T01:48:04.685Z,18.54
2022-08-21T01:50:32.885Z,18.51
2022-08-21T01:53:00.843Z,18.47
2022-08-21T01:55:28.923Z,18.44
2022-08-21T01:57:59.649Z,18.42
2022-08-21T02:00:27.866Z,18.38
2022-08-21T02:03:08.304Z,18.35
2022-08-21T02:05:36.498Z,18.31
2022-08-21T02:08:05.293Z,18.29
2022-08-21T02:10:33.982Z,18.26
2022-08-21T02:13:03.652Z,18.25
2022-08-21T02:15:32.661Z,18.23
2022-08-21T02:18:01.940Z,18.22
2022-08-21T02:20:31.103Z,18.18
2022-08-21T02:22:59.266Z,18.18
2022-08-21T02:25:32.330Z,18.14
2022-08-21T02:28:06.745Z,18.12
2022-08-21T02:30:36.149Z,18.11
2022-08-21T02:33:04.013Z,18.08
2022-08-21T02:35:32.554Z,18.06
2022-08-21T02:38:01.593Z,18.03
2022-08-21T02:40:31.727Z,18.00
2022-08-21T02:42:59.804Z,17.98
2022-08-21T02:45:30.398Z,17.94
2022-08-21T02:48:00.285Z,17.92
2022-08-21T02:50:29.810Z,17.88
2022-08-21T02:52:58.347Z,17.85
2022-08-21T02:55:28.005Z,17.83
2022-08-21T02:57:56.464Z,17.79
2022-08-21T03:00:26.336Z,17.75
2022-08-21T03:02:56.691Z,17.73
2022-08-21T03:05:25.732Z,17.69
2022-08-21T03:08:10.505Z,17.65
2022-08-21T03:10:40.750Z,17.62
2022-08-21T03:13:09.299Z,17.59
2022-08-21T03:15:37.503Z,17.56
2022-08-21T03:18:07.865Z,17.53
2022-08-21T03:20:36.902Z,17.49
2022-08-21T03:23:06.165Z,17.45
2022-08-21T03:25:41.592Z,17.42
2022-08-21T03:28:13.235Z,17.37
2022-08-21T03:30:42.324Z,17.34
2022-08-21T03:33:13.136Z,17.30
2022-08-21T03:35:44.001Z,17.26
2022-08-21T03:38:13.778Z,17.23
2022-08-21T03:40:41.850Z,17.19
2022-08-21T03:43:10.663Z,17.16
2022-08-21T03:45:39.799Z,17.14
2022-08-21T03:48:08.733Z,17.11
2022-08-21T03:50:41.739Z,17.08
2022-08-21T03:53:16.758Z,17.05
2022-08-21T03:55:46.577Z,17.00
2022-08-21T03:58:16.973Z,17.00
2022-08-21T04:00:45.809Z,16.96
2022-08-21T04:03:13.773Z,16.96
2022-08-21T04:05:43.774Z,16.93
2022-08-21T04:08:11.853Z,16.91
2022-08-21T04:10:40.537Z,16.90
2022-08-21T04:13:11.503Z,16.89
2022-08-21T04:15:39.698Z,16.87
2022-08-21T04:18:07.781Z,16.87
2022-08-21T04:20:35.864Z,16.86
2022-08-21T04:23:05.399Z,16.85
2022-08-21T04:25:33.705Z,16.85
2022-08-21T04:28:03.112Z,16.84
2022-08-21T04:30:31.433Z,16.84
2022-08-21T04:33:00.362Z,16.83
2022-08-21T04:35:29.896Z,16.84
2022-08-21T04:37:58.097Z,16.83
2022-08-21T04:40:28.771Z,16.82
2022-08-21T04:42:59.246Z,16.83
2022-08-21T04:45:28.349Z,16.83
2022-08-21T04:47:58.324Z,16.84
2022-08-21T04:50:30.259Z,16.84
2022-08-21T04:53:09.486Z,16.84
2022-08-21T04:55:39.265Z,16.83
2022-08-21T04:58:07.931Z,16.83
2022-08-21T05:00:36.018Z,16.83
2022-08-21T05:03:05.535Z,16.80
2022-08-21T05:05:33.852Z,16.80
2022-08-21T05:08:05.656Z,16.77
2022-08-21T05:10:36.978Z,16.76
2022-08-21T05:13:08.540Z,16.73
2022-08-21T05:15:36.741Z,16.72
2022-08-21T05:18:04.822Z,16.70
2022-08-21T05:20:35.440Z,16.70
2022-08-21T05:23:04.345Z,16.69
2022-08-21T05:25:32.551Z,16.69
2022-08-21T05:28:02.668Z,16.69
2022-08-21T05:30:32.208Z,16.71
2022-08-21T05:33:01.015Z,16.72
2022-08-21T05:35:29.678Z,16.75
2022-08-21T05:37:57.876Z,16.79
2022-08-21T05:40:26.281Z,16.81
2022-08-21T05:58:57.069Z,17.02
2022-08-21T06:01:25.416Z,17.05
2022-08-21T06:03:53.933Z,17.10
2022-08-21T06:06:25.498Z,17.14
2022-08-21T06:08:53.831Z,17.18
2022-08-21T06:11:24.720Z,17.20
2022-08-21T06:13:58.046Z,17.24
2022-08-21T06:16:26.466Z,17.27
2022-08-21T06:18:57.460Z,17.30
2022-08-21T06:21:27.671Z,17.32
2022-08-21T06:23:56.749Z,17.35
2022-08-21T06:26:24.922Z,17.38
2022-08-21T06:28:52.991Z,17.42
2022-08-21T06:31:23.973Z,17.47
2022-08-21T06:33:52.644Z,17.50
2022-08-21T06:36:21.925Z,17.55
2022-08-21T06:38:51.783Z,17.60
2022-08-21T06:41:24.165Z,17.64
2022-08-21T06:43:54.933Z,17.69
2022-08-21T06:46:24.938Z,17.74
2022-08-21T06:48:53.009Z,17.79
2022-08-21T06:51:21.205Z,17.84
2022-08-21T06:53:50.009Z,17.91
2022-08-21T06:56:18.097Z,18.00
2022-08-21T06:58:46.540Z,18.14
2022-08-21T07:01:14.530Z,18.32
2022-08-21T07:03:45.952Z,18.54
2022-08-21T07:06:14.032Z,18.80
2022-08-21T07:08:42.699Z,19.08
2022-08-21T07:11:13.420Z,19.39
2022-08-21T07:13:41.881Z,19.72
2022-08-21T07:16:10.071Z,20.04
2022-08-21T07:18:38.523Z,20.34
2022-08-21T07:21:09.124Z,20.64
2022-08-21T07:23:39.000Z,20.97
2022-08-21T07:26:07.452Z,21.26
2022-08-21T07:28:35.752Z,21.55
2022-08-21T07:31:05.647Z,21.82
2022-08-21T07:33:35.060Z,22.08
2022-08-21T07:36:03.356Z,22.33
2022-08-21T07:38:33.012Z,22.55
2022-08-21T07:41:02.779Z,22.74
2022-08-21T07:43:31.817Z,22.93
2022-08-21T07:46:00.125Z,23.10
2022-08-21T07:48:28.214Z,23.25
2022-08-21T07:50:56.816Z,23.38
2022-08-21T07:53:24.976Z,23.51
2022-08-21T07:55:54.625Z,23.65
2022-08-21T07:58:22.693Z,23.75
2022-08-21T08:00:51.162Z,23.86
2022-08-21T08:03:22.567Z,23.96
2022-08-21T08:05:57.505Z,24.05
2022-08-21T08:08:25.588Z,24.13
2022-08-21T08:10:56.430Z,24.22
2022-08-21T08:13:24.746Z,24.31
2022-08-21T08:15:52.824Z,24.39
2022-08-21T08:18:21.036Z,24.46
2022-08-21T08:20:49.352Z,24.54
2022-08-21T08:23:17.678Z,24.62
2022-08-21T08:25:46.003Z,24.68
2022-08-21T08:28:16.928Z,24.75
2022-08-21T08:30:46.114Z,24.80
2022-08-21T08:33:14.083Z,24.88
2022-08-21T08:35:42.641Z,24.95
2022-08-21T08:38:10.876Z,25.00
2022-08-21T08:40:43.100Z,25.07
2022-08-21T08:43:14.577Z,25.13
2022-08-21T08:45:46.736Z,25.21
2022-08-21T08:48:17.086Z,25.27
2022-08-21T08:50:47.568Z,25.34
2022-08-21T08:53:18.081Z,25.41
2022-08-21T08:55:48.531Z,25.47
2022-08-21T08:58:19.393Z,25.56
2022-08-21T09:00:50.553Z,25.61
2022-08-21T09:03:19.377Z,25.69
2022-08-21T09:05:49.380Z,25.75
2022-08-21T09:08:29.819Z,25.80
2022-08-21T09:11:02.942Z,25.86
2022-08-21T09:13:38.596Z,25.90
2022-08-21T09:16:13.996Z,25.93
2022-08-21T09:18:46.158Z,25.96
2022-08-21T09:21:18.670Z,25.98
2022-08-21T09:23:52.402Z,26.01
2022-08-21T09:26:22.632Z,26.04
2022-08-21T09:28:53.952Z,26.06
2022-08-21T09:31:26.246Z,26.08
2022-08-21T09:34:02.137Z,26.12
2022-08-21T09:36:34.165Z,26.14
2022-08-21T09:39:02.601Z,26.18
2022-08-21T09:41:32.122Z,26.22
2022-08-21T09:44:00.565Z,26.26
2022-08-21T09:46:30.335Z,26.30
2022-08-21T09:48:59.855Z,26.34
2022-08-21T09:51:32.368Z,26.38
2022-08-21T09:54:15.716Z,26.41
2022-08-21T09:57:11.871Z,26.48
2022-08-21T09:59:40.301Z,26.52
2022-08-21T10:02:24.944Z,26.56
2022-08-21T10:04:53.858Z,26.61
2022-08-21T10:07:24.220Z,26.67
2022-08-21T10:10:00.588Z,26.71
2022-08-21T10:12:34.192Z,26.77
2022-08-21T10:15:09.114Z,26.83
2022-08-21T10:17:45.706Z,26.89
2022-08-21T10:20:19.308Z,26.96
2022-08-21T10:22:49.832Z,27.03
2022-08-21T10:25:22.086Z,27.08
2022-08-21T10:27:55.082Z,27.16
2022-08-21T10:30:29.035Z,27.22
2022-08-21T10:33:08.537Z,27.27
2022-08-21T10:35:42.499Z,27.35
2022-08-21T10:38:48.831Z,27.38
2022-08-21T10:41:22.737Z,27.45
2022-08-21T10:43:54.397Z,27.48
2022-08-21T10:46:38.896Z,27.51
2022-08-21T10:49:16.330Z,27.52
2022-08-21T10:52:02.294Z,27.53
2022-08-21T10:54:38.176Z,27.54
2022-08-21T10:57:11.894Z,27.51
2022-08-21T10:59:44.681Z,27.51
2022-08-21T11:02:17.656Z,27.50
2022-08-21T11:04:52.699Z,27.50
2022-08-21T11:07:23.548Z,27.50
2022-08-21T11:09:54.639Z,27.53
2022-08-21T11:12:30.267Z,27.53
2022-08-21T11:15:00.902Z,27.55
2022-08-21T11:17:37.347Z,27.56
2022-08-21T11:20:25.376Z,27.56
2022-08-21T11:23:03.210Z,27.57
2022-08-21T11:25:36.932Z,27.58
2022-08-21T11:28:14.460Z,27.60
2022-08-21T11:30:50.122Z,27.62
2022-08-21T11:33:30.059Z,27.63
2022-08-21T11:36:05.321Z,27.65
2022-08-21T11:38:39.894Z,27.66
2022-08-21T11:41:15.534Z,27.67
2022-08-21T11:43:45.405Z,27.69
2022-08-21T11:46:22.006Z,27.69
2022-08-21T11:48:56.600Z,27.70
2022-08-21T11:51:39.676Z,27.71
2022-08-21T11:54:16.372Z,27.71
2022-08-21T11:56:48.058Z,27.71
2022-08-21T11:59:22.018Z,27.70
2022-08-21T12:01:51.723Z,27.69
2022-08-21T12:04:23.711Z,27.69
2022-08-21T12:06:54.899Z,27.69
2022-08-21T12:09:35.480Z,27.69
2022-08-21T12:12:06.160Z,27.70
2022-08-21T12:14:41.706Z,27.71
2022-08-21T12:17:20.551Z,27.71
2022-08-21T12:19:59.472Z,27.73
2022-08-21T12:22:38.968Z,27.74
2022-08-21T12:25:09.686Z,27.77
2022-08-21T12:27:46.656Z,27.79
2022-08-21T12:30:25.743Z,27.80
2022-08-21T12:33:01.287Z,27.85
2022-08-21T12:35:34.408Z,27.87
2022-08-21T12:38:04.770Z,27.89
2022-08-21T12:40:39.571Z,27.91
2022-08-21T12:43:14.487Z,27.91
2022-08-21T12:45:44.846Z,27.94
2022-08-21T12:48:16.670Z,27.95
2022-08-21T12:50:51.938Z,27.97
2022-08-21T12:53:27.455Z,27.98
2022-08-21T12:56:02.515Z,27.98
2022-08-21T12:58:31.083Z,27.98
2022-08-21T13:01:00.815Z,27.97
2022-08-21T13:03:29.875Z,27.95
2022-08-21T13:05:58.543Z,27.94
2022-08-21T13:08:29.023Z,27.92
2022-08-21T13:11:08.938Z,27.90
2022-08-21T13:13:46.831Z,27.86
2022-08-21T13:16:22.315Z,27.84
2022-08-21T13:18:58.470Z,27.82
2022-08-21T13:21:30.476Z,27.83
2022-08-21T13:24:31.722Z,27.82
2022-08-21T13:26:59.272Z,27.83
2022-08-21T13:29:30.736Z,27.84
2022-08-21T13:32:00.123Z,27.85
2022-08-21T13:34:29.525Z,27.85
2022-08-21T13:37:01.331Z,27.85
2022-08-21T13:39:29.653Z,27.84
2022-08-21T13:41:59.883Z,27.83
2022-08-21T13:44:36.495Z,27.81
2022-08-21T13:47:09.849Z,27.80
2022-08-21T13:49:39.503Z,27.78
2022-08-21T13:52:16.484Z,27.77
2022-08-21T13:54:54.612Z,27.75
2022-08-21T13:57:33.499Z,27.74
2022-08-21T14:00:15.756Z,27.73
2022-08-21T14:02:45.859Z,27.74
2022-08-21T14:05:18.745Z,27.73
2022-08-21T14:07:48.156Z,27.73
2022-08-21T14:10:19.105Z,27.72
2022-08-21T14:12:51.143Z,27.72
2022-08-21T14:15:20.551Z,27.72
2022-08-21T14:17:48.639Z,27.72
2022-08-21T14:20:31.230Z,27.70
2022-08-21T14:22:59.989Z,27.69
2022-08-21T14:25:32.793Z,27.66
2022-08-21T14:28:19.702Z,27.64
2022-08-21T14:30:48.170Z,27.61
2022-08-21T14:33:24.516Z,27.59
2022-08-21T14:35:52.606Z,27.56
2022-08-21T14:38:21.882Z,27.56
2022-08-21T14:40:52.365Z,27.54
2022-08-21T14:43:22.005Z,27.53
2022-08-21T14:45:50.822Z,27.54
2022-08-21T14:48:18.886Z,27.54
2022-08-21T14:50:47.216Z,27.53
2022-08-21T14:53:15.416Z,27.54
2022-08-21T14:56:00.786Z,27.54
2022-08-21T14:58:30.661Z,27.53
2022-08-21T15:00:59.269Z,27.54
2022-08-21T15:03:27.658Z,27.53
2022-08-21T15:05:55.618Z,27.54
2022-08-21T15:08:23.583Z,27.54
2022-08-21T15:11:11.177Z,27.54
2022-08-21T15:13:41.234Z,27.53
2022-08-21T15:16:11.489Z,27.53
2022-08-21T15:18:39.799Z,27.50
2022-08-21T15:21:07.991Z,27.50
2022-08-21T15:23:36.431Z,27.49
2022-08-21T15:26:10.631Z,27.47
2022-08-21T15:28:39.313Z,27.45
2022-08-21T15:31:09.926Z,27.43
2022-08-21T15:33:38.498Z,27.40
2022-08-21T15:36:08.957Z,27.36
2022-08-21T15:38:37.280Z,27.35
2022-08-21T15:41:06.083Z,27.32
2022-08-21T15:43:37.524Z,27.30
2022-08-21T15:46:06.924Z,27.27
2022-08-21T15:48:36.573Z,27.25
2022-08-21T15:51:04.912Z,27.20
2022-08-21T15:53:36.449Z,27.17
2022-08-21T15:56:05.498Z,27.14
2022-08-21T15:58:33.465Z,27.11
2022-08-21T16:01:02.789Z,27.07
2022-08-21T16:03:30.840Z,27.04
2022-08-21T16:06:00.457Z,27.00
2022-08-21T16:08:28.668Z,26.97
2022-08-21T16:10:56.757Z,26.93
2022-08-21T16:13:26.743Z,26.89
2022-08-21T16:15:55.067Z,26.85
2022-08-21T16:18:24.466Z,26.81
2022-08-21T16:20:52.548Z,26.77
2022-08-21T16:23:25.190Z,26.75
2022-08-21T16:25:53.531Z,26.72
2022-08-21T16:28:22.672Z,26.69
2022-08-21T16:30:52.331Z,26.66
2022-08-21T16:33:23.287Z,26.63
2022-08-21T16:35:51.488Z,26.60
2022-08-21T16:38:19.711Z,26.56
2022-08-21T16:40:49.560Z,26.53
2022-08-21T16:43:19.323Z,26.50
2022-08-21T16:45:47.642Z,26.45
2022-08-21T16:48:15.866Z,26.41
2022-08-21T16:50:47.916Z,26.36
2022-08-21T16:53:21.736Z,26.32
2022-08-21T16:55:51.613Z,26.27
2022-08-21T16:58:22.585Z,26.23
2022-08-21T17:00:50.730Z,26.18
2022-08-21T17:03:21.493Z,26.11
2022-08-21T17:05:49.695Z,26.08
2022-08-21T17:08:17.795Z,26.04
2022-08-21T17:10:50.311Z,26.00
2022-08-21T17:13:19.962Z,25.95
2022-08-21T17:15:47.922Z,25.92
2022-08-21T17:18:18.024Z,25.89
2022-08-21T17:20:46.226Z,25.86
2022-08-21T17:23:14.673Z,25.83
2022-08-21T17:25:44.916Z,25.81
2022-08-21T17:28:15.161Z,25.78
2022-08-21T17:30:46.386Z,25.76
2022-08-21T17:33:15.043Z,25.74
2022-08-21T17:35:43.484Z,25.70
2022-08-21T17:38:14.940Z,25.69
2022-08-21T17:40:43.962Z,25.64
2022-08-21T17:43:16.480Z,25.62
2022-08-21T17:45:46.244Z,25.60
2022-08-21T17:48:14.453Z,25.57
2022-08-21T17:50:42.525Z,25.55
2022-08-21T17:53:10.886Z,25.50
2022-08-21T17:55:39.183Z,25.47
2022-08-21T17:58:07.493Z,25.44
2022-08-21T18:00:35.812Z,25.40
2022-08-21T18:03:09.074Z,25.36
2022-08-21T18:05:37.383Z,25.31
2022-08-21T18:08:05.467Z,25.27
2022-08-21T18:10:33.787Z,25.21
2022-08-21T18:13:04.982Z,25.17
2022-08-21T18:15:33.809Z,25.13
2022-08-21T18:18:02.824Z,25.07
2022-08-21T18:20:32.361Z,25.02
2022-08-21T18:23:01.115Z,24.98
2022-08-21T18:25:29.951Z,24.94
2022-08-21T18:27:59.590Z,24.88
2022-08-21T18:30:27.912Z,24.82
2022-08-21T18:32:56.659Z,24.77
2022-08-21T18:35:25.072Z,24.72
2022-08-21T18:37:54.584Z,24.67
2022-08-21T18:40:22.831Z,24.63
2022-08-21T18:42:55.049Z,24.59
2022-08-21T18:45:28.404Z,24.53
2022-08-21T18:47:58.176Z,24.48
2022-08-21T18:50:27.819Z,24.43
2022-08-21T18:52:58.649Z,24.40
2022-08-21T18:58:15.262Z,24.30
2022-08-21T19:00:47.406Z,24.25
2022-08-21T19:03:23.850Z,24.20
2022-08-21T19:05:52.797Z,24.15
2022-08-21T19:08:23.511Z,24.12
2022-08-21T19:10:52.903Z,24.08
2022-08-21T19:13:23.038Z,24.04
2022-08-21T19:15:53.176Z,24.00
2022-08-21T19:21:13.085Z,23.92
2022-08-21T19:23:43.443Z,23.88
2022-08-21T19:26:13.069Z,23.84
2022-08-21T19:31:34.011Z,23.75
2022-08-21T19:34:03.607Z,23.71
2022-08-21T19:36:31.695Z,23.68
2022-08-21T19:39:02.049Z,23.66
2022-08-21T19:41:38.759Z,23.61
2022-08-21T19:44:10.682Z,23.59
2022-08-21T19:46:41.250Z,23.55
2022-08-21T19:49:12.614Z,23.52
2022-08-21T19:51:41.886Z,23.48
2022-08-21T19:54:15.851Z,23.46
2022-08-21T19:56:46.452Z,23.43
2022-08-21T19:59:40.702Z,23.41
2022-08-21T20:02:10.332Z,23.37
2022-08-21T20:04:38.898Z,23.36
2022-08-21T20:07:26.601Z,23.32
2022-08-21T20:09:56.993Z,23.30
2022-08-21T20:12:25.358Z,23.28
2022-08-21T20:14:54.637Z,23.25
2022-08-21T20:17:23.066Z,23.23
2022-08-21T20:19:55.117Z,23.20
2022-08-21T20:22:24.258Z,23.18
2022-08-21T20:24:52.599Z,23.16
2022-08-21T20:27:24.529Z,23.14
2022-08-21T20:29:55.746Z,23.11
2022-08-21T20:32:24.183Z,23.08
2022-08-21T20:34:53.802Z,23.07
2022-08-21T20:37:36.997Z,23.04
2022-08-21T20:43:00.270Z,22.99
2022-08-21T20:45:31.511Z,22.97
2022-08-21T20:48:02.707Z,22.94
2022-08-21T20:50:37.116Z,22.91
2022-08-21T20:53:09.918Z,22.88
2022-08-21T20:55:43.267Z,22.87
2022-08-21T20:58:19.750Z,22.84
2022-08-21T21:00:51.898Z,22.80
2022-08-21T21:03:30.337Z,22.79
2022-08-21T21:06:01.496Z,22.76
2022-08-21T21:08:32.957Z,22.73
2022-08-21T21:11:04.072Z,22.71
2022-08-21T21:13:38.789Z,22.69
2022-08-21T21:16:18.222Z,22.67
2022-08-21T21:18:48.081Z,22.64
2022-08-21T21:21:19.908Z,22.62
2022-08-21T21:23:51.428Z,22.58
2022-08-21T21:26:23.127Z,22.55
2022-08-21T21:29:01.990Z,22.52
2022-08-21T21:31:32.832Z,22.50
2022-08-21T21:34:00.804Z,22.47
2022-08-21T21:36:31.278Z,22.45
2022-08-21T21:39:08.601Z,22.44
2022-08-21T21:44:39.103Z,22.38
2022-08-21T21:47:11.003Z,22.37
2022-08-21T21:49:53.853Z,22.34
2022-08-21T21:52:34.407Z,22.32
2022-08-21T21:55:07.648Z,22.28
2022-08-21T21:57:56.609Z,22.25
2022-08-21T22:00:26.884Z,22.23
2022-08-21T22:03:00.797Z,22.20
2022-08-21T22:05:38.496Z,22.16
2022-08-21T22:08:11.377Z,22.15
2022-08-21T22:10:44.138Z,22.11
2022-08-21T22:13:26.266Z,22.08
2022-08-21T22:15:56.268Z,22.06
2022-08-21T22:18:27.350Z,22.04
2022-08-21T22:20:57.465Z,22.02
2022-08-21T22:23:27.730Z,21.99
2022-08-21T22:26:00.387Z,21.96
2022-08-21T22:28:31.086Z,21.95
2022-08-21T22:31:12.122Z,21.92
2022-08-21T22:33:42.594Z,21.91
2022-08-21T22:36:17.634Z,21.87
2022-08-21T22:38:47.529Z,21.86
2022-08-21T22:41:21.489Z,21.83
2022-08-21T22:43:54.367Z,21.82
2022-08-21T22:46:29.520Z,21.79
2022-08-21T22:49:01.242Z,21.78
2022-08-21T22:51:32.462Z,21.75
2022-08-21T22:54:01.445Z,21.72
2022-08-21T22:56:31.806Z,21.70
2022-08-21T22:59:02.779Z,21.68
2022-08-21T23:01:34.702Z,21.65
2022-08-21T23:04:14.302Z,21.64
2022-08-21T23:09:36.744Z,21.58
2022-08-21T23:12:14.106Z,21.57
2022-08-21T23:14:54.728Z,21.54
2022-08-21T23:17:31.820Z,21.52
2022-08-21T23:20:11.303Z,21.51
2022-08-21T23:22:47.326Z,21.49
2022-08-21T23:25:26.904Z,21.47
2022-08-21T23:27:59.674Z,21.44
2022-08-21T23:30:38.788Z,21.42
2022-08-21T23:33:16.723Z,21.39
2022-08-21T23:36:04.352Z,21.37
2022-08-21T23:38:37.727Z,21.36
2022-08-21T23:41:11.387Z,21.33
2022-08-21T23:43:45.520Z,21.30
2022-08-21T23:46:33.396Z,21.29
2022-08-21T23:49:10.017Z,21.26
2022-08-21T23:51:43.132Z,21.24
2022-08-21T23:54:22.613Z,21.22
2022-08-21T23:57:08.200Z,21.19
2022-08-21T23:59:40.984Z,21.17
